Flight Track Log - Related Links

Times and Time Zones

All times are in EDT time to prevent confusion due to time zone crossing. See the AMF702 flight status page for this flight to view local times or setup timezone preferences in your user account.

Time Position Orientation Groundspeed Altitude Reporting Facility
EDT Latitude Longitude Course Direction KTS MPH feet Rate Location/Type
Fri 12:19:56 PM 25.9114 -80.2614 89° East 143 165 500  Level Miami Center
Fri 12:20:58 PM 25.9125 -80.2131 89° East 169 194 2,100 1,220 Climbing Miami Center
Fri 12:21:59 PM 25.9158 -80.1486 87° East 206 237 3,000 1,013 Climbing Miami Center
Fri 12:22:15 PM 25.9225 -80.1303 68° East 205 236 3,400 1,200 Climbing Miami Center
Fri 12:22:59 PM 25.9625 -80.1267 North 223 257 4,200 800 Climbing Miami Center
Fri 12:23:15 PM 25.9708 -80.1269 358° North 218 251 4,200 1,147 Level Miami Center
Fri 12:24:07 PM 25.9839 -80.1919 283° West 225 259 5,500 1,500 Climbing Miami Center
Fri 12:24:15 PM 25.9919 -80.1992 321° Northwest 224 258 5,700 1,279 Climbing Miami Center
Fri 12:25:08 PM 25.9989 -80.2639 277° West 221 254 6,800 1,300 Climbing Miami Center
Fri 12:25:15 PM 26.0031 -80.2664 332° Northwest 224 258 7,000 1,254 Climbing Miami Center
Fri 12:26:15 PM 26.0458 -80.3117 316° Northwest 215 247 8,200 1,105 Climbing Miami Center
Fri 12:27:09 PM 26.0908 -80.3475 324° Northwest 223 257 9,100 900 Climbing Miami Center
Fri 12:27:15 PM 26.0992 -80.3478 358° North 221 254 9,100 1,091 Level Miami Center
Fri 12:28:15 PM 26.1506 -80.3842 328° Northwest 226 260 10,300 1,300 Climbing Miami Center
Fri 12:29:15 PM 26.2022 -80.4133 333° Northwest 235 270 11,700 1,200 Climbing Miami Center
Fri 12:30:15 PM 26.2411 -80.4378 331° Northwest 219 252 12,700 1,350 Climbing Miami Center
Fri 12:31:15 PM 26.2969 -80.4694 333° Northwest 191 220 14,400 1,350 Climbing Miami Center
Fri 12:32:15 PM 26.3464 -80.4964 334° Northwest 191 220 15,400 1,200 Climbing Miami Center
Fri 12:33:15 PM 26.3936 -80.5211 335° Northwest 191 220 16,800 1,200 Climbing Miami Center
Fri 12:34:15 PM 26.4411 -80.5433 337° Northwest 191 220 17,800 600 Climbing Miami Center
Fri 12:35:15 PM 26.4950 -80.5683 337° Northwest 198 228 18,000 150 Climbing Miami Center
Fri 12:36:15 PM 26.5589 -80.5958 339° North 223 257 18,100  Climbing Miami Center
Fri 12:37:15 PM 26.6228 -80.6306 334° Northwest 247 284 18,000 -50 Descending Miami Center
Fri 12:38:15 PM 26.6908 -80.6583 340° North 257 296 18,000  Level Miami Center
Fri 12:39:15 PM 26.7592 -80.6861 340° North 257 296 18,000  Level Miami Center
Fri 12:40:15 PM 26.8253 -80.7114 341° North 263 303 18,000  Level Miami Center
Fri 12:41:15 PM 26.8956 -80.7369 342° North 269 310 18,000 700 Level Miami Center
Fri 12:42:15 PM 26.9617 -80.7650 339° North 263 303 19,400 1,350 Climbing Miami Center
Fri 12:43:15 PM 27.0153 -80.7853 341° North 234 269 20,700 800 Climbing Miami Center
Fri 12:44:15 PM 27.0692 -80.8058 341° North 209 241 21,000 100 Climbing Miami Center
Fri 12:45:15 PM 27.1311 -80.8311 340° North 209 241 20,900  Descending Miami Center
Fri 12:46:15 PM 27.1972 -80.8592 339° North 226 260 21,000 50 Climbing Miami Center
Fri 12:47:15 PM 27.2675 -80.8850 342° North 248 285 21,000 -50 Level Miami Center
Fri 12:48:15 PM 27.3356 -80.9108 341° North 255 293 20,900 -50 Descending Miami Center
Fri 12:49:15 PM 27.4078 -80.9367 342° North 266 306 20,900  Level Miami Center
Fri 12:50:15 PM 27.4781 -80.9672 339° North 266 306 20,900  Level Miami Center
Fri 12:51:15 PM 27.5461 -80.9908 343° North 266 306 20,900  Level Miami Center
Fri 12:52:15 PM 27.6164 -81.0192 340° North 266 306 20,900  Level Miami Center
Fri 12:53:15 PM 27.6867 -81.0428 343° North 266 306 20,900  Level Miami Center
Fri 12:54:15 PM 27.7547 -81.0711 340° North 266 306 20,900  Level Miami Center
Fri 12:55:15 PM 27.8269 -81.1019 339° North 266 306 20,900  Level Miami Center
Fri 12:56:15 PM 27.8931 -81.1231 344° North 266 306 20,900 50 Level Miami Center
Fri 12:57:15 PM 27.9694 -81.1519 342° North 266 306 21,000 50 Climbing Miami Center
Fri 12:58:15 PM 28.0397 -81.1756 343° North 266 306 21,000  Level Miami Center
Fri 12:59:15 PM 28.1097 -81.1994 343° North 260 299 21,000  Level Miami Center
Fri 01:00:15 PM 28.1739 -81.2186 345° North 260 299 21,000  Level Miami Center
Fri 01:02:31 PM 28.3336 -81.2678 345° North 261 300 21,000  Level Jacksonville Center
Fri 01:03:30 PM 28.4028 -81.2925 343° North 261 300 21,000 -50 Level Jacksonville Center
Fri 01:04:30 PM 28.4719 -81.3128 346° North 261 300 20,900  Descending Jacksonville Center
Fri 01:05:30 PM 28.5433 -81.3375 343° North 261 300 21,000 50 Climbing Jacksonville Center
Fri 01:06:31 PM 28.6122 -81.3556 347° North 261 300 21,000 -50 Level Jacksonville Center
Fri 01:07:30 PM 28.6875 -81.3614 356° North 261 300 20,900  Descending Jacksonville Center
Fri 01:08:31 PM 28.7606 -81.3675 356° North 261 300 21,000  Climbing Jacksonville Center
Fri 01:09:30 PM 28.8381 -81.3733 356° North 256 295 20,900 50 Descending Jacksonville Center
Fri 01:10:30 PM 28.9028 -81.3747 359° North 256 295 21,100  Climbing Jacksonville Center
Fri 01:11:31 PM 28.9800 -81.3853 353° North 256 295 20,900  Descending Jacksonville Center
Fri 01:12:30 PM 29.0531 -81.3892 357° North 256 295 21,100 50 Climbing Jacksonville Center
Fri 01:13:31 PM 29.1242 -81.3975 354° North 256 295 21,000 -50 Descending Jacksonville Center
Fri 01:14:31 PM 29.1994 -81.3986 359° North 256 295 21,000 -50 Level Jacksonville Center
Fri 01:15:30 PM 29.2683 -81.4072 354° North 256 295 20,900 -50 Descending Jacksonville Center
Fri 01:16:30 PM 29.3414 -81.4156 354° North 256 295 20,900 100 Level Jacksonville Center
Fri 01:17:30 PM 29.4147 -81.4239 354° North 256 295 21,100 50 Climbing Jacksonville Center
Fri 01:18:30 PM 29.4856 -81.4278 357° North 256 295 21,000 -50 Descending Jacksonville Center
Fri 01:19:30 PM 29.5567 -81.4314 357° North 256 295 21,000 -50 Level Jacksonville Center
Fri 01:20:30 PM 29.6297 -81.4328 359° North 256 295 20,900  Descending Jacksonville Center
Fri 01:21:30 PM 29.7028 -81.4292 North 256 295 21,000 50 Climbing Jacksonville Center
Fri 01:22:30 PM 29.7758 -81.4233 North 256 295 21,000  Level Jacksonville Center
Fri 01:23:31 PM 29.8467 -81.4175 North 256 295 21,000  Level Jacksonville Center
Fri 01:24:30 PM 29.9136 -81.4214 357° North 256 295 21,000 -50 Level Jacksonville Center
Fri 01:25:30 PM 29.9825 -81.4322 352° North 256 295 20,900  Descending Jacksonville Center
Fri 01:26:30 PM 30.0536 -81.4431 352° North 256 295 21,000 50 Climbing Jacksonville Center
Fri 01:27:30 PM 30.1228 -81.4589 349° North 256 295 21,000 50 Level Jacksonville Center
Fri 01:28:30 PM 30.1939 -81.4675 354° North 256 295 21,100 -50 Climbing Jacksonville Center
Fri 01:29:30 PM 30.2669 -81.4783 353° North 256 295 20,900 -100 Descending Jacksonville Center
Fri 01:30:30 PM 30.3381 -81.4894 352° North 256 295 20,900  Level Jacksonville Center
Fri 01:31:30 PM 30.4089 -81.4739 11° North 256 295 20,900 99 Level Jacksonville Center
Fri 01:32:31 PM 30.4817 -81.4486 17° North 256 295 21,100 100 Climbing Jacksonville Center
Fri 01:33:30 PM 30.5525 -81.4258 15° North 256 295 21,100 -50 Level Jacksonville Center
Fri 01:34:30 PM 30.6275 -81.4031 15° North 256 295 21,000 -99 Descending Jacksonville Center
Fri 01:35:31 PM 30.7003 -81.3778 17° North 261 300 20,900 -50 Descending Jacksonville Center
Fri 01:36:30 PM 30.7750 -81.3547 15° North 261 300 20,900 50 Level Jacksonville Center
Fri 01:37:30 PM 30.8458 -81.3319 15° North 261 300 21,000 100 Climbing Jacksonville Center
Fri 01:38:30 PM 30.9186 -81.3089 15° North 261 300 21,100 50 Climbing Jacksonville Center
Fri 01:39:30 PM 30.9892 -81.2883 14° North 261 300 21,100  Level Jacksonville Center
Fri 01:40:30 PM 31.0619 -81.2678 14° North 261 300 21,100 -50 Level Jacksonville Center
Fri 01:41:31 PM 31.1369 -81.2444 15° North 261 300 21,000  Descending Jacksonville Center
Fri 01:42:30 PM 31.2078 -81.2239 14° North 261 300 21,100  Climbing Jacksonville Center
Fri 01:43:30 PM 31.2825 -81.2006 15° North 261 300 21,000 -50 Descending Jacksonville Center
Fri 01:44:31 PM 31.3531 -81.1653 23° Northeast 261 300 21,000  Level Jacksonville Center
Fri 01:45:30 PM 31.4211 -81.1056 37° Northeast 271 312 21,000  Level Jacksonville Center
Fri 01:46:30 PM 31.4850 -81.0556 34° Northeast 276 318 21,000 50 Level Jacksonville Center
Fri 01:47:30 PM 31.5450 -81.0106 33° Northeast 276 318 21,100  Climbing Jacksonville Center
Fri 01:48:30 PM 31.6172 -80.9603 31° Northeast 271 312 21,000  Descending Jacksonville Center
Fri 01:49:30 PM 31.6772 -80.9175 31° Northeast 271 312 21,100  Climbing Jacksonville Center
Fri 01:50:30 PM 31.7475 -80.8647 33° Northeast 271 312 21,000 -50 Descending Jacksonville Center
Fri 01:51:31 PM 31.8156 -80.8217 28° Northeast 271 312 21,000  Level Jacksonville Center
Fri 01:52:30 PM 31.8714 -80.7814 31° Northeast 264 304 21,000  Level Jacksonville Center
Fri 01:53:31 PM 31.9433 -80.7258 33° Northeast 274 315 21,000  Level Jacksonville Center
Fri 01:54:30 PM 32.0053 -80.6778 33° Northeast 265 305 21,000  Level Jacksonville Center
Fri 01:55:30 PM 32.0608 -80.6350 33° Northeast 265 305 21,000  Level Jacksonville Center
Fri 01:56:30 PM 32.1331 -80.5864 30° Northeast 270 311 21,000  Level Jacksonville Center
Fri 01:57:30 PM 32.1906 -80.5408 34° Northeast 264 304 21,000  Level Jacksonville Center
Fri 01:58:30 PM 32.2589 -80.5047 24° Northeast 259 298 21,000  Level Jacksonville Center
Fri 01:59:31 PM 32.3206 -80.4589 32° Northeast 259 298 21,000  Level Jacksonville Center
Fri 02:00:30 PM 32.3867 -80.4153 29° Northeast 259 298 21,000  Level Jacksonville Center
Fri 02:01:30 PM 32.4503 -80.3717 30° Northeast 264 304 21,000  Level Jacksonville Center
Fri 02:02:30 PM 32.5122 -80.3306 29° Northeast 259 298 21,000  Level Jacksonville Center
Fri 02:03:30 PM 32.5717 -80.2769 37° Northeast 259 298 21,000  Level Jacksonville Center
Fri 02:04:30 PM 32.6333 -80.2308 32° Northeast 259 298 21,000  Level Jacksonville Center
Fri 02:05:30 PM 32.6950 -80.1822 34° Northeast 265 305 21,000  Level Jacksonville Center
Fri 02:06:30 PM 32.7564 -80.1333 34° Northeast 265 305 21,000  Level Jacksonville Center
Fri 02:07:30 PM 32.8203 -80.0894 30° Northeast 260 299 21,000  Level Jacksonville Center
Fri 02:08:30 PM 32.8861 -80.0453 29° Northeast 260 299 21,000  Level Jacksonville Center
Fri 02:09:30 PM 32.9433 -79.9917 38° Northeast 260 299 21,000  Level Jacksonville Center
Fri 02:10:30 PM 33.0003 -79.9328 41° Northeast 265 305 21,000  Level Jacksonville Center
Fri 02:11:30 PM 33.0656 -79.8686 39° Northeast 271 312 21,000  Level Jacksonville Center
Fri 02:12:30 PM 33.1247 -79.8144 37° Northeast 271 312 21,000  Level Jacksonville Center
Fri 02:13:30 PM 33.1861 -79.7578 38° Northeast 271 312 21,000  Level Jacksonville Center
Fri 02:14:30 PM 33.2431 -79.7036 38° Northeast 271 312 21,000  Level Jacksonville Center
Fri 02:15:30 PM 33.3000 -79.6444 41° Northeast 271 312 21,000  Level Jacksonville Center
Fri 02:16:30 PM 33.3592 -79.5878 39° Northeast 271 312 21,000  Level Jacksonville Center
Fri 02:17:30 PM 33.4203 -79.5331 37° Northeast 271 312 21,000  Level Jacksonville Center
Fri 02:18:30 PM 33.4792 -79.4761 39° Northeast 271 312 21,000  Level Jacksonville Center
Fri 02:19:30 PM 33.5381 -79.4189 39° Northeast 271 312 21,000  Level Jacksonville Center
Fri 02:20:31 PM 33.5992 -79.3617 38° Northeast 271 312 21,000  Level Jacksonville Center
Fri 02:21:30 PM 33.6581 -79.3044 39° Northeast 271 312 21,000  Level Jacksonville Center
Fri 02:22:30 PM 33.7128 -79.2472 41° Northeast 271 312 21,000  Level Jacksonville Center
Fri 02:23:30 PM 33.7717 -79.1900 39° Northeast 266 306 21,000  Level Jacksonville Center
Fri 02:25:46 PM 33.9025 -79.0569 40° Northeast 277 319 21,000  Level Washington Center
Fri 02:26:46 PM 33.9647 -78.9994 37° Northeast 280 322 21,000  Level Washington Center
Fri 02:27:46 PM 34.0250 -78.9394 40° Northeast 274 315 21,000  Level Washington Center
Fri 02:28:44 PM 34.0850 -78.8792 40° Northeast 286 329 21,000  Level Washington Center
Fri 02:29:45 PM 34.1469 -78.8239 36° Northeast 280 322 21,000  Level Washington Center
Fri 02:30:46 PM 34.2069 -78.7633 40° Northeast 275 316 21,000  Level Washington Center
Fri 02:31:44 PM 34.2692 -78.7006 40° Northeast 275 316 21,000 50 Level Washington Center
Fri 02:32:45 PM 34.3292 -78.6400 40° Northeast 275 316 21,100  Climbing Washington Center
Fri 02:33:46 PM 34.3872 -78.5742 43° Northeast 280 322 21,000 -50 Descending Washington Center
Fri 02:34:46 PM 34.4450 -78.5108 42° Northeast 280 322 21,000  Level Washington Center
Fri 02:35:44 PM 34.5047 -78.4550 38° Northeast 280 322 21,000  Level Washington Center
Fri 02:36:44 PM 34.5708 -78.3942 37° Northeast 285 328 21,000 50 Level Washington Center
Fri 02:37:45 PM 34.6328 -78.3333 39° Northeast 280 322 21,100 50 Climbing Washington Center
Fri 02:38:45 PM 34.6928 -78.2719 40° Northeast 280 322 21,100 -50 Level Washington Center
Fri 02:39:46 PM 34.7506 -78.2058 43° Northeast 280 322 21,000 -50 Descending Washington Center
Fri 02:40:46 PM 34.8017 -78.1467 44° Northeast 285 328 21,000  Level Washington Center
Fri 02:41:44 PM 34.8594 -78.0775 44° Northeast 280 322 21,000  Level Washington Center
Fri 02:42:45 PM 34.9192 -78.0161 40° Northeast 275 316 21,000  Level Washington Center
Fri 02:43:45 PM 34.9811 -77.9547 39° Northeast 275 316 21,000  Level Washington Center
Fri 02:44:44 PM 35.0406 -77.8981 38° Northeast 270 311 21,000  Level Washington Center
Fri 02:45:45 PM 35.0981 -77.8361 41° Northeast 270 311 21,000  Level Washington Center
Fri 02:46:45 PM 35.1575 -77.7769 39° Northeast 270 311 21,000  Level Washington Center
Fri 02:47:46 PM 35.2150 -77.7175 40° Northeast 270 311 21,000  Level Washington Center
Fri 02:48:46 PM 35.2744 -77.6578 39° Northeast 264 304 21,000  Level Washington Center
Fri 02:49:45 PM 35.3339 -77.5983 39° Northeast 264 304 21,000  Level Washington Center
Fri 02:50:46 PM 35.3933 -77.5436 37° Northeast 264 304 21,000 50 Level Washington Center
Fri 02:51:46 PM 35.4567 -77.4942 32° Northeast 264 304 21,100  Climbing Washington Center
Fri 02:52:46 PM 35.5139 -77.4344 40° Northeast 264 304 21,000 -51 Descending Washington Center
Fri 02:53:44 PM 35.5772 -77.3772 36° Northeast 264 304 21,000  Level Washington Center
Fri 02:54:45 PM 35.6406 -77.3300 31° Northeast 264 304 21,000  Level Washington Center
Fri 02:55:46 PM 35.7061 -77.2750 34° Northeast 269 310 21,000  Level Washington Center
Fri 02:56:44 PM 35.7653 -77.2200 37° Northeast 269 310 21,000  Level Washington Center
Fri 02:57:45 PM 35.8286 -77.1650 35° Northeast 269 310 21,000  Level Washington Center
Fri 02:57:45 PM 35.8286 -77.1650 35° Northeast 269 310 21,000  Level Washington Center
Fri 02:58:44 PM 35.8836 -77.1047 42° Northeast 269 310 21,000  Level Washington Center
Fri 02:58:44 PM 35.8836 -77.1047 42° Northeast 269 310 21,000  Level Washington Center
Fri 02:59:44 PM 35.9450 -77.0417 40° Northeast 269 310 21,000  Level Washington Center
Fri 02:59:44 PM 35.9450 -77.0417 40° Northeast 269 310 21,000  Level Washington Center
Fri 03:00:46 PM 36.0083 -76.9811 38° Northeast 275 316 21,000  Level Washington Center
Fri 03:00:46 PM 36.0083 -76.9811 38° Northeast 275 316 21,000  Level Washington Center
Fri 03:01:10 PM 36.0397 -76.9508 38° Northeast 283 326 21,000  Level Washington Center
Fri 03:01:10 PM 36.0397 -76.9508 38° Northeast 283 326 21,000  Level Washington Center
Fri 03:01:46 PM 36.0778 -76.9181 35° Northeast 284 327 21,000  Level Washington Center
Fri 03:01:46 PM 36.0778 -76.9181 35° Northeast 284 327 21,000  Level Washington Center
Fri 03:02:46 PM 36.1306 -76.8625 40° Northeast 281 323 21,000  Level Washington Center
Fri 03:02:46 PM 36.1306 -76.8625 40° Northeast 281 323 21,000  Level Washington Center
Fri 03:03:44 PM 36.1958 -76.8069 34° Northeast 281 323 21,000  Level Washington Center
Fri 03:03:44 PM 36.1958 -76.8069 34° Northeast 281 323 21,000  Level Washington Center
Fri 03:03:50 PM 36.2064 -76.8019 21° North 280 322 21,000  Level Washington Center
Fri 03:03:50 PM 36.2064 -76.8019 21° North 280 322 21,000  Level Washington Center
Fri 03:04:44 PM 36.2589 -76.7486 39° Northeast 276 318 21,000  Level Washington Center
Fri 03:04:44 PM 36.2589 -76.7486 39° Northeast 276 318 21,000  Level Washington Center
Fri 03:04:50 PM 36.2675 -76.7436 25° Northeast 278 320 21,000  Level Washington Center
Fri 03:04:50 PM 36.2675 -76.7436 25° Northeast 278 320 21,000  Level Washington Center
Fri 03:05:51 PM 36.3306 -76.6853 37° Northeast 278 320 21,000  Level Washington Center
Fri 03:05:51 PM 36.3306 -76.6853 37° Northeast 278 320 21,000  Level Washington Center
Fri 03:06:45 PM 36.3853 -76.6369 35° Northeast 271 312 21,000  Level Washington Center
Fri 03:06:45 PM 36.3853 -76.6369 35° Northeast 271 312 21,000  Level Washington Center
Fri 03:06:52 PM 36.3978 -76.6267 33° Northeast 278 320 21,000  Level Washington Center
Fri 03:06:52 PM 36.3978 -76.6267 33° Northeast 278 320 21,000  Level Washington Center
Fri 03:07:46 PM 36.4483 -76.5808 36° Northeast 271 312 21,000  Level Washington Center
Fri 03:07:46 PM 36.4483 -76.5808 36° Northeast 271 312 21,000  Level Washington Center
Fri 03:07:52 PM 36.4608 -76.5708 33° Northeast 281 323 21,000  Level Washington Center
Fri 03:07:52 PM 36.4608 -76.5708 33° Northeast 281 323 21,000  Level Washington Center
Fri 03:08:46 PM 36.5111 -76.5275 35° Northeast 271 312 21,000  Level Washington Center
Fri 03:08:46 PM 36.5111 -76.5275 35° Northeast 271 312 21,000  Level Washington Center
Fri 03:08:52 PM 36.5239 -76.5172 33° Northeast 278 320 21,000  Level Washington Center
Fri 03:08:52 PM 36.5239 -76.5172 33° Northeast 278 320 21,000  Level Washington Center
Fri 03:09:44 PM 36.5764 -76.4764 32° Northeast 276 318 21,000  Level Washington Center
Fri 03:09:44 PM 36.5764 -76.4764 32° Northeast 276 318 21,000  Level Washington Center
Fri 03:09:53 PM 36.5911 -76.4639 34° Northeast 277 319 21,000  Level Washington Center
Fri 03:09:53 PM 36.5911 -76.4639 34° Northeast 277 319 21,000  Level Washington Center
Fri 03:10:45 PM 36.6478 -76.4203 32° Northeast 281 323 21,000  Level Washington Center
Fri 03:10:45 PM 36.6478 -76.4203 32° Northeast 281 323 21,000  Level Washington Center
Fri 03:10:54 PM 36.6581 -76.4075 45° Northeast 279 321 21,000  Level Washington Center
Fri 03:10:54 PM 36.6581 -76.4075 45° Northeast 279 321 21,000  Level Washington Center
Fri 03:11:45 PM 36.7106 -76.3614 35° Northeast 281 323 21,000  Level Washington Center
Fri 03:11:45 PM 36.7106 -76.3614 35° Northeast 281 323 21,000  Level Washington Center
Fri 03:11:54 PM 36.7211 -76.3539 30° Northeast 276 318 21,000  Level Washington Center
Fri 03:11:54 PM 36.7211 -76.3539 30° Northeast 276 318 21,000  Level Washington Center
Fri 03:12:46 PM 36.7756 -76.2997 39° Northeast 281 323 21,000  Level Washington Center
Fri 03:12:46 PM 36.7756 -76.2997 39° Northeast 281 323 21,000  Level Washington Center
Fri 03:12:55 PM 36.7842 -76.2922 35° Northeast 278 320 21,000  Level Washington Center
Fri 03:12:55 PM 36.7842 -76.2922 35° Northeast 278 320 21,000  Level Washington Center
Fri 03:13:46 PM 36.8386 -76.2433 36° Northeast 281 323 21,000  Level Washington Center
Fri 03:13:46 PM 36.8386 -76.2433 36° Northeast 281 323 21,000  Level Washington Center
Fri 03:13:56 PM 36.8447 -76.2408 18° North 278 320 21,000  Level Washington Center
Fri 03:13:56 PM 36.8447 -76.2408 18° North 278 320 21,000  Level Washington Center
Fri 03:14:44 PM 36.9056 -76.1867 35° Northeast 281 323 21,000  Level Washington Center
Fri 03:14:44 PM 36.9056 -76.1867 35° Northeast 281 323 21,000  Level Washington Center
Fri 03:14:56 PM 36.9078 -76.1894 315° West 279 321 21,000  Level Washington Center
Fri 03:14:56 PM 36.9078 -76.1894 315° West 279 321 21,000 -122 Level Washington Center
Fri 03:15:45 PM 36.9747 -76.1508 25° Northeast 279 321 20,900 -122 Descending Washington Center
Fri 03:15:45 PM 36.9747 -76.1508 25° Northeast 279 321 20,900  Level Washington Center
Fri 03:15:57 PM 36.9850 -76.1483 11° North 279 321 20,900  Level Washington Center
Fri 03:15:57 PM 36.9850 -76.1483 11° North 279 321 20,900 122 Level Washington Center
Fri 03:16:46 PM 37.0458 -76.1097 27° Northeast 279 321 21,000 122 Climbing Washington Center
Fri 03:16:46 PM 37.0458 -76.1097 27° Northeast 279 321 21,000  Level Washington Center
Fri 03:16:58 PM 37.0561 -76.1047 21° North 276 318 21,000  Level Washington Center
Fri 03:16:58 PM 37.0561 -76.1047 21° North 276 318 21,000 -130 Level Washington Center
Fri 03:17:44 PM 37.1147 -76.0736 23° Northeast 280 322 20,900 -130 Descending Washington Center
Fri 03:17:44 PM 37.1147 -76.0736 23° Northeast 280 322 20,900 400 Level Washington Center
Fri 03:17:59 PM 37.1272 -76.0711 North 278 320 21,000 400 Climbing Washington Center
Fri 03:17:59 PM 37.1272 -76.0711 North 278 320 21,000  Level Washington Center
Fri 03:18:45 PM 37.1919 -76.0378 22° Northeast 280 322 21,000  Level Washington Center
Fri 03:18:45 PM 37.1919 -76.0378 22° Northeast 280 322 21,000  Level Washington Center
Fri 03:19:00 PM 37.1983 -76.0378 360° North 274 315 21,000  Level Washington Center
Fri 03:19:00 PM 37.1983 -76.0378 360° North 274 315 21,000  Level Washington Center
Fri 03:19:45 PM 37.2611 -76.0017 25° Northeast 280 322 21,000  Level Washington Center
Fri 03:19:45 PM 37.2611 -76.0017 25° Northeast 280 322 21,000  Level Washington Center
Fri 03:20:00 PM 37.2736 -75.9964 19° North 278 320 21,000  Level Washington Center
Fri 03:20:00 PM 37.2736 -75.9964 19° North 278 320 21,000  Level Washington Center
Fri 03:20:46 PM 37.3342 -75.9653 22° Northeast 280 322 21,000  Level Washington Center
Fri 03:20:46 PM 37.3342 -75.9653 22° Northeast 280 322 21,000  Level Washington Center
Fri 03:21:01 PM 37.3447 -75.9575 30° Northeast 277 319 21,000  Level Washington Center
Fri 03:21:01 PM 37.3447 -75.9575 30° Northeast 277 319 21,000  Level Washington Center
Fri 03:21:44 PM 37.3989 -75.9317 21° North 311 358 21,000  Level Washington Center
Fri 03:21:44 PM 37.3989 -75.9317 21° North 311 358 21,000  Level Washington Center
Fri 03:22:44 PM 37.4678 -75.8928 24° Northeast 306 352 21,000  Level Washington Center
Fri 03:22:44 PM 37.4678 -75.8928 24° Northeast 306 352 21,000  Level Washington Center
Fri 03:23:46 PM 37.5367 -75.8536 24° Northeast 281 323 21,000  Level Washington Center
Fri 03:23:46 PM 37.5367 -75.8536 24° Northeast 281 323 21,000  Level Washington Center
Fri 03:24:45 PM 37.5994 -75.7964 36° Northeast 274 315 21,000  Level Washington Center
Fri 03:24:45 PM 37.5994 -75.7964 36° Northeast 274 315 21,000  Level Washington Center
Fri 03:25:45 PM 37.6642 -75.7414 34° Northeast 274 315 21,000  Level Washington Center
Fri 03:25:45 PM 37.6642 -75.7414 34° Northeast 274 315 21,000 -102 Level Washington Center
Fri 03:26:44 PM 37.7308 -75.6889 32° Northeast 279 321 20,900 -102 Descending Washington Center
Fri 03:26:44 PM 37.7308 -75.6889 32° Northeast 279 321 20,900 100 Level Washington Center
Fri 03:27:44 PM 37.7978 -75.6417 29° Northeast 279 321 21,000 100 Climbing Washington Center
Fri 03:27:44 PM 37.7978 -75.6417 29° Northeast 279 321 21,000 -97 Level Washington Center
Fri 03:28:46 PM 37.8644 -75.5917 31° Northeast 273 314 20,900 -97 Descending Washington Center
Fri 03:28:46 PM 37.8644 -75.5917 31° Northeast 273 314 20,900 100 Level Washington Center
Fri 03:29:46 PM 37.9292 -75.5417 31° Northeast 273 314 21,000 100 Climbing Washington Center
Fri 03:29:46 PM 37.9292 -75.5417 31° Northeast 273 314 21,000  Level Washington Center
Fri 03:30:46 PM 37.9978 -75.4917 30° Northeast 273 314 21,000  Level Washington Center
Fri 03:30:46 PM 37.9978 -75.4917 30° Northeast 273 314 21,000  Level Washington Center
Fri 03:31:44 PM 38.0644 -75.4414 31° Northeast 273 314 21,000  Level Washington Center
Fri 03:31:44 PM 38.0644 -75.4414 31° Northeast 273 314 21,000  Level Washington Center
Fri 03:32:45 PM 38.1292 -75.3778 38° Northeast 278 320 21,000  Level Washington Center
Fri 03:32:45 PM 38.1292 -75.3778 38° Northeast 278 320 21,000  Level Washington Center
Fri 03:33:46 PM 38.1875 -75.3117 42° Northeast 283 326 21,000  Level Washington Center
Fri 03:33:46 PM 38.1875 -75.3117 42° Northeast 283 326 21,000  Level Washington Center
Fri 03:34:46 PM 38.2497 -75.2453 40° Northeast 283 326 21,000  Level Washington Center
Fri 03:34:46 PM 38.2497 -75.2453 40° Northeast 283 326 21,000  Level Washington Center
Fri 03:35:44 PM 38.2997 -75.2003 35° Northeast 283 326 21,000  Level Washington Center
Fri 03:35:44 PM 38.2997 -75.2003 35° Northeast 283 326 21,000  Level Washington Center
Fri 03:36:44 PM 38.3683 -75.1308 38° Northeast 283 326 21,000  Level Washington Center
Fri 03:36:44 PM 38.3683 -75.1308 38° Northeast 283 326 21,000  Level Washington Center
Fri 03:37:46 PM 38.4306 -75.0642 40° Northeast 283 326 21,000  Level Washington Center
Fri 03:37:46 PM 38.4306 -75.0642 40° Northeast 283 326 21,000  Level Washington Center
Fri 03:38:44 PM 38.4947 -75.0056 36° Northeast 283 326 21,000  Level Washington Center
Fri 03:38:44 PM 38.4947 -75.0056 36° Northeast 283 326 21,000  Level Washington Center
Fri 03:39:44 PM 38.5569 -74.9464 37° Northeast 283 326 21,000  Level Washington Center
Fri 03:39:44 PM 38.5569 -74.9464 37° Northeast 283 326 21,000 -97 Level Washington Center
Fri 03:40:46 PM 38.6233 -74.8847 36° Northeast 283 326 20,900 -97 Descending Washington Center
Fri 03:40:46 PM 38.6233 -74.8847 36° Northeast 283 326 20,900 100 Level Washington Center
Fri 03:41:46 PM 38.6856 -74.8203 39° Northeast 283 326 21,000 100 Climbing Washington Center
Fri 03:41:46 PM 38.6856 -74.8203 39° Northeast 283 326 21,000  Level Washington Center
Fri 03:42:44 PM 38.7497 -74.7558 38° Northeast 288 331 21,000  Level Washington Center
Fri 03:42:44 PM 38.7497 -74.7558 38° Northeast 288 331 21,000  Level Washington Center
Fri 03:48:45 PM 39.1233 -74.3489 40° Northeast 282 325 21,000  Level New York Center
Fri 03:49:45 PM 39.1836 -74.2850 39° Northeast 291 335 21,000  Level New York Center
Fri 03:50:45 PM 39.2439 -74.2183 41° Northeast 291 335 21,000 -50 Level New York Center
Fri 03:51:45 PM 39.3064 -74.1542 38° Northeast 291 335 20,900  Descending New York Center
Fri 03:52:45 PM 39.3686 -74.0872 40° Northeast 291 335 21,000 50 Climbing New York Center
Fri 03:53:45 PM 39.4331 -74.0231 38° Northeast 291 335 21,000  Level New York Center
Fri 03:54:45 PM 39.4911 -73.9531 43° Northeast 286 329 21,000 -50 Level New York Center
Fri 03:55:45 PM 39.5536 -73.8833 41° Northeast 291 335 20,900 -50 Descending New York Center
Fri 03:56:45 PM 39.6117 -73.8106 44° Northeast 291 335 20,900 50 Level New York Center
Fri 03:57:45 PM 39.6719 -73.7456 40° Northeast 291 335 21,000  Climbing New York Center
Fri 03:58:45 PM 39.7319 -73.6753 42° Northeast 286 329 20,900  Descending New York Center
Fri 03:59:45 PM 39.7919 -73.6047 42° Northeast 286 329 21,000 50 Climbing New York Center
Fri 04:00:45 PM 39.8519 -73.5369 41° Northeast 286 329 21,000  Level New York Center
Fri 04:01:45 PM 39.9119 -73.4689 41° Northeast 286 329 21,000  Level New York Center
Fri 04:02:45 PM 39.9739 -73.4036 39° Northeast 286 329 21,000  Level New York Center
Fri 04:04:34 PM 40.0800 -73.2861 40° Northeast 291 335 21,000  Level Boston Center
Fri 04:05:32 PM 40.1450 -73.2272 35° Northeast 291 335 21,000  Level Boston Center
Fri 04:06:32 PM 40.2058 -73.1600 40° Northeast 284 327 21,000  Level Boston Center
Fri 04:07:33 PM 40.2728 -73.1064 31° Northeast 284 327 21,000  Level Boston Center
Fri 04:08:33 PM 40.3231 -73.0578 36° Northeast 284 327 21,000  Level Boston Center
Fri 04:09:34 PM 40.4006 -72.9906 33° Northeast 279 321 21,000  Level Boston Center
Fri 04:10:34 PM 40.4653 -72.9367 32° Northeast 274 315 21,000 -51 Level Boston Center
Fri 04:11:31 PM 40.5344 -72.8797 32° Northeast 279 321 20,900 -504 Descending Boston Center
Fri 04:12:33 PM 40.5992 -72.8228 34° Northeast 279 321 20,000 -1,082 Descending Boston Center
Fri 04:13:33 PM 40.6703 -72.7683 30° Northeast 284 327 18,700 -1,190 Descending Boston Center
Fri 04:14:34 PM 40.7392 -72.7139 31° Northeast 300 345 17,600 -857 Descending Boston Center
Fri 04:15:32 PM 40.8081 -72.6622 30° Northeast 300 345 17,000 -356 Descending Boston Center
Fri 04:16:32 PM 40.8747 -72.6019 34° Northeast 289 333 16,900  Descending Boston Center
Fri 04:17:33 PM 40.9394 -72.5444 34° Northeast 284 327 17,000 50 Climbing Boston Center
Fri 04:18:33 PM 41.0042 -72.4842 35° Northeast 284 327 17,000 -50 Level Boston Center
Fri 04:19:34 PM 41.0686 -72.4264 34° Northeast 284 327 16,900  Descending Boston Center
Fri 04:20:32 PM 41.1333 -72.3628 37° Northeast 284 327 17,000 51 Climbing Boston Center
Fri 04:21:32 PM 41.2000 -72.3078 32° Northeast 279 321 17,000  Level Boston Center
Fri 04:22:32 PM 41.2728 -72.2439 33° Northeast 285 328 17,000 -496 Level Boston Center
Fri 04:23:33 PM 41.3311 -72.1886 35° Northeast 285 328 16,000 -1,289 Descending Boston Center
Fri 04:24:33 PM 41.4081 -72.1219 33° Northeast 285 328 14,400 -1,361 Descending Boston Center
Fri 04:25:32 PM 41.4725 -72.0744 29° Northeast 285 328 13,300 -1,160 Descending Boston Center
Fri 04:26:32 PM 41.5492 -72.0158 30° Northeast 290 334 12,100 -1,055 Descending Boston Center
Fri 04:27:03 PM 41.5825 -72.0128 North 278 320 11,700 -689 Descending Boston Center
Fri 04:27:33 PM 41.6161 -72.0125 360° North 268 308 11,400 -583 Descending Boston Center
Fri 04:28:15 PM 41.6744 -72.0150 358° North 269 310 11,000 -400 Descending Boston Center
Fri 04:28:33 PM 41.6972 -72.0092 11° North 268 308 11,000  Level Boston Center
Fri 04:29:10 PM 41.7411 -72.0117 358° North 258 297 11,000  Level Boston Center
Fri 04:29:34 PM 41.7619 -72.0086 North 263 303 11,000  Level Boston Center
Fri 04:30:13 PM 41.8097 -72.0167 353° North 248 285 11,000  Level Boston Center
Fri 04:30:34 PM 41.8306 -72.0167 360° North 254 292 11,000  Level Boston Center
Fri 04:31:07 PM 41.8744 -72.0164 360° North 249 287 11,000  Level Boston Center
Fri 04:31:32 PM 41.9056 -72.0161 360° North 249 287 11,000 -492 Level Boston Center
Fri 04:32:08 PM 41.9433 -72.0297 345° North 253 291 10,500 -1,055 Descending Boston Center
Fri 04:33:03 PM 42.0081 -72.0544 344° North 268 308 9,400 -1,513 Descending Boston Center
Fri 04:34:03 PM 42.0789 -72.0736 349° North 270 311 7,600 -1,984 Descending Boston Center
Fri 04:35:10 PM 42.1453 -72.0061 37° Northeast 255 293 5,200 -1,228 Descending Boston Center
Fri 04:36:10 PM 42.1931 -71.9469 43° Northeast 226 260 5,000 -99 Descending Boston Center
Fri 04:37:11 PM 42.2364 -71.8933 42° Northeast 214 246 5,000  Level Boston Center
Fri 04:39:08 PM 42.3333 -71.7833 40° Northeast 215 247 5,000 34 Level KA90
Fri 04:40:08 PM 42.3833 -71.7167 45° Northeast 230 265 5,100 -333 Climbing KA90
Fri 04:41:14 PM 42.4333 -71.6500 45° Northeast 240 276 4,300 -939 Descending KA90
Fri 04:42:03 PM 42.4667 -71.6000 48° Northeast 247 284 3,300 -716 Descending KA90
Fri 04:43:03 PM 42.5167 -71.5333 44° Northeast 230 265 3,000 -474 Descending KA90
Fri 04:43:57 PM 42.5167 -71.4667 90° East 232 267 2,400 -476 Descending KA90
Fri 04:45:09 PM 42.5000 -71.3500 101° East 225 259 2,000 -227 Descending KA90
Fri 04:46:09 PM 42.5000 -71.2667 90° East 218 251 1,900 -316 Descending KA90
Fri 04:47:03 PM 42.4833 -71.2333 124° Southeast 139 160 1,400 -556 Descending KA90
Fri 04:49:00 PM 42.4667 -71.2833 200° South  Level FlightAware Approximate
Fri 04:56:00 PM 42.4699 -71.2890 200° South  Level Estimated

Login

Don't have an account? Register now (free) for customized features, flight alerts, and more!